Time;durP1;ratioP1;P1;durP2;ratioP2;P2;SDS_P1;SDS_P2;PMS_P1;PMS_P2;Temp;Humidity;BMP_temperature;BMP_pressure;BME280_temperature;BME280_humidity;BME280_pressure;Samples;Min_cycle;Max_cycle;Signal;HPM_P1;HPM_P2
2023/09/19 00:00:25;;;;;;;19.17;3.90;;;;;;;15.01;100.00;100626.47;6210938;23;20520;-74
2023/09/19 00:02:54;;;;;;;18.20;3.65;;;;;;;14.99;100.00;100627.63;6211220;23;20004;-73
2023/09/19 00:05:23;;;;;;;21.35;4.38;;;;;;;14.95;100.00;100632.50;6184731;23;20008;-74
2023/09/19 00:07:50;;;;;;;11.82;3.30;;;;;;;14.96;100.00;100634.16;6183583;23;20482;-73
2023/09/19 00:10:16;;;;;;;16.30;3.80;;;;;;;14.96;100.00;100630.63;6212873;23;20009;-74
2023/09/19 00:12:43;;;;;;;14.10;3.88;;;;;;;14.94;100.00;100646.16;6213333;23;20330;-74
2023/09/19 00:15:10;;;;;;;18.63;3.85;;;;;;;14.94;100.00;100647.00;6212956;23;20091;-75
2023/09/19 00:17:37;;;;;;;17.90;3.88;;;;;;;14.92;100.00;100650.84;6186457;23;20027;-74
2023/09/19 00:20:07;;;;;;;21.40;4.15;;;;;;;14.92;100.00;100654.44;6187500;23;20000;-74
2023/09/19 00:22:33;;;;;;;18.35;3.83;;;;;;;14.88;100.00;100653.00;6214319;23;20358;-74
2023/09/19 00:24:58;;;;;;;16.27;3.45;;;;;;;14.84;100.00;100649.72;6214246;23;20004;-74
2023/09/19 00:27:23;;;;;;;13.63;3.92;;;;;;;14.83;100.00;100666.09;6213047;23;20020;-74
2023/09/19 00:29:48;;;;;;;18.33;4.00;;;;;;;14.82;100.00;100657.16;6213708;23;20015;-73
2023/09/19 00:32:14;;;;;;;17.30;3.83;;;;;;;14.79;100.00;100665.56;6213923;23;20312;-74
2023/09/19 00:34:39;;;;;;;14.93;3.70;;;;;;;14.79;100.00;100662.00;6214341;23;20032;-75
2023/09/19 00:37:04;;;;;;;15.52;3.83;;;;;;;14.75;100.00;100668.69;6214082;23;20008;-74
2023/09/19 00:39:31;;;;;;;16.70;3.95;;;;;;;14.74;100.00;100677.81;6213357;23;20001;-73
2023/09/19 00:41:57;;;;;;;17.77;3.72;;;;;;;14.72;100.00;100672.53;6213997;23;19996;-74
2023/09/19 00:44:23;;;;;;;17.42;3.97;;;;;;;14.70;100.00;100681.78;6187276;23;20012;-74
2023/09/19 00:46:50;;;;;;;18.38;3.42;;;;;;;14.70;100.00;100681.78;6213954;23;20080;-74
2023/09/19 00:49:15;;;;;;;14.35;3.63;;;;;;;14.67;100.00;100682.91;6186562;23;20024;-68
2023/09/19 00:51:45;;;;;;;20.83;4.03;;;;;;;14.66;100.00;100683.94;6213930;23;20020;-68
2023/09/19 00:54:12;;;;;;;15.20;3.50;;;;;;;14.65;100.00;100690.34;6186953;23;20012;-68
2023/09/19 00:56:40;;;;;;;15.05;3.50;;;;;;;14.63;100.00;100695.88;6214236;23;20004;-68
2023/09/19 00:59:06;;;;;;;11.68;2.97;;;;;;;14.62;100.00;100701.44;6213248;23;20116;-69
2023/09/19 01:01:32;;;;;;;13.45;3.33;;;;;;;14.61;100.00;100702.41;6186981;23;20430;-69
2023/09/19 01:03:58;;;;;;;17.13;3.65;;;;;;;14.59;100.00;100705.25;6214102;23;20374;-69
2023/09/19 01:06:23;;;;;;;19.75;3.38;;;;;;;14.58;100.00;100705.41;6214016;23;20004;-69
2023/09/19 01:08:49;;;;;;;18.98;3.30;;;;;;;14.53;100.00;100700.41;6212956;23;20068;-68
2023/09/19 01:11:32;;;;;;;12.95;3.20;;;;;;;14.52;100.00;100712.22;6213662;23;20024;-69
2023/09/19 01:14:20;;;;;;;19.40;3.90;;;;;;;14.52;100.00;100704.09;6213838;23;20343;-70
2023/09/19 01:17:09;;;;;;;12.13;3.05;;;;;;;14.49;100.00;100716.09;6213254;23;20126;-70
2023/09/19 01:20:11;;;;;;;12.73;3.40;;;;;;;14.50;100.00;100708.81;6213104;23;20004;-69
2023/09/19 01:23:12;;;;;;;19.42;3.90;;;;;;;14.50;100.00;100723.19;6213859;23;20016;-69
2023/09/19 01:25:47;;;;;;;21.40;3.63;;;;;;;14.45;100.00;100725.47;6119074;23;20069;-69
2023/09/19 01:28:43;;;;;;;16.33;3.67;;;;;;;14.44;100.00;100714.78;6120193;23;20040;-70
2023/09/19 01:31:11;;;;;;;16.63;3.47;;;;;;;14.38;100.00;100721.63;6120480;23;20435;-69
2023/09/19 01:34:04;;;;;;;16.05;3.72;;;;;;;14.42;100.00;100724.88;6120907;23;20332;-68
2023/09/19 01:36:35;;;;;;;19.48;3.53;;;;;;;14.38;100.00;100726.16;6120409;23;20006;-69
2023/09/19 01:39:10;;;;;;;15.98;3.80;;;;;;;14.37;100.00;100732.56;6094460;23;20451;-69
2023/09/19 01:41:55;;;;;;;22.45;3.55;;;;;;;14.38;100.00;100728.84;6094005;23;20143;-70
2023/09/19 01:44:44;;;;;;;18.20;3.90;;;;;;;14.37;100.00;100733.41;6109520;23;20306;-68
2023/09/19 01:47:23;;;;;;;16.02;3.35;;;;;;;14.36;100.00;100737.09;6081313;23;20010;-69
2023/09/19 01:50:00;;;;;;;17.27;3.47;;;;;;;14.34;100.00;100737.25;6119435;23;20492;-69
2023/09/19 01:52:30;;;;;;;15.73;3.63;;;;;;;14.30;100.00;100735.81;6120231;23;20014;-69
2023/09/19 01:55:05;;;;;;;15.85;3.30;;;;;;;14.29;100.00;100736.81;6120107;23;20013;-69
2023/09/19 01:57:37;;;;;;;20.88;4.03;;;;;;;14.31;100.00;100733.97;6118641;23;20010;-69
2023/09/19 02:00:08;;;;;;;19.55;4.20;;;;;;;14.30;100.00;100729.56;6098311;23;20006;-74
2023/09/19 02:02:39;;;;;;;19.17;3.75;;;;;;;14.28;100.00;100726.16;6211927;23;19996;-74
2023/09/19 02:05:06;;;;;;;17.27;4.00;;;;;;;14.26;99.81;100729.00;6186100;23;20386;-74
2023/09/19 02:07:31;;;;;;;15.80;3.20;;;;;;;14.25;99.95;100731.84;6185131;23;20085;-74
2023/09/19 02:09:59;;;;;;;13.90;3.25;;;;;;;14.27;99.98;100725.28;6211857;23;20438;-74
2023/09/19 02:12:25;;;;;;;19.73;3.75;;;;;;;14.27;98.61;100732.53;6211574;23;20090;-74
2023/09/19 02:14:50;;;;;;;16.23;3.25;;;;;;;14.27;98.71;100733.38;6211679;23;20427;-74
2023/09/19 02:17:17;;;;;;;13.23;3.38;;;;;;;14.26;98.58;100730.81;6212630;23;20391;-74
2023/09/19 02:19:42;;;;;;;14.98;3.30;;;;;;;14.22;98.54;100732.13;6211567;23;20240;-74
2023/09/19 02:22:10;;;;;;;14.70;3.25;;;;;;;14.20;98.20;100728.69;6184313;23;20498;-74
2023/09/19 02:24:36;;;;;;;15.02;3.15;;;;;;;14.20;98.01;100731.41;6212346;23;20064;-74
2023/09/19 02:27:03;;;;;;;13.75;3.10;;;;;;;14.18;98.22;100728.00;6212110;23;20008;-74
2023/09/19 02:29:29;;;;;;;19.38;3.38;;;;;;;14.18;99.04;100739.63;6210298;23;20023;-74
2023/09/19 02:31:55;;;;;;;17.83;3.75;;;;;;;14.15;98.06;100737.22;6210417;23;20493;-74
2023/09/19 02:34:21;;;;;;;15.73;3.28;;;;;;;14.14;98.08;100751.72;6185016;23;20008;-74
2023/09/19 02:36:47;;;;;;;19.58;3.45;;;;;;;14.17;98.22;100751.44;6212238;23;20368;-74
2023/09/19 02:39:12;;;;;;;17.83;3.33;;;;;;;14.11;97.05;100750.13;6184651;23;20005;-74
2023/09/19 02:41:37;;;;;;;15.70;3.08;;;;;;;14.10;96.39;100740.34;6210983;23;20000;-74
2023/09/19 02:44:07;;;;;;;15.20;3.60;;;;;;;14.11;97.32;100741.19;6211712;23;20004;-73
2023/09/19 02:46:32;;;;;;;18.90;3.42;;;;;;;14.06;95.89;100744.31;6185512;23;20039;-74
2023/09/19 02:48:58;;;;;;;19.52;4.28;;;;;;;14.06;96.07;100747.00;6212093;23;20011;-74
2023/09/19 02:51:23;;;;;;;14.68;3.08;;;;;;;14.05;95.23;100745.28;6210251;23;20343;-74
2023/09/19 02:53:49;;;;;;;11.27;3.10;;;;;;;14.02;95.56;100748.28;6211641;23;20066;-74
2023/09/19 02:56:15;;;;;;;9.48;2.38;;;;;;;14.03;95.99;100755.41;6185038;23;20009;-74
2023/09/19 02:58:41;;;;;;;14.35;3.10;;;;;;;13.99;95.46;100749.41;6211110;23;20001;-74
2023/09/19 03:01:12;;;;;;;15.15;2.90;;;;;;;13.97;95.25;100745.16;6210816;23;20338;-74
2023/09/19 03:03:38;;;;;;;17.23;3.03;;;;;;;13.93;94.22;100751.81;6209945;23;20012;-74
2023/09/19 03:06:05;;;;;;;21.30;3.78;;;;;;;13.90;94.74;100760.19;6211970;23;20004;-74
2023/09/19 03:08:31;;;;;;;12.48;3.08;;;;;;;13.87;94.74;100758.59;6211401;23;20500;-69
2023/09/19 03:10:56;;;;;;;19.58;3.33;;;;;;;13.86;94.21;100747.94;6210593;23;20000;-73
2023/09/19 03:13:21;;;;;;;18.90;3.67;;;;;;;13.87;95.11;100760.47;6209208;23;20087;-74
2023/09/19 03:15:47;;;;;;;9.77;2.67;;;;;;;13.87;95.03;100750.50;6182027;23;20011;-75
2023/09/19 03:18:13;;;;;;;14.30;2.80;;;;;;;13.81;94.58;100751.91;6211978;23;20083;-74
2023/09/19 03:20:38;;;;;;;17.35;3.28;;;;;;;13.84;94.79;100749.94;6211792;23;20071;-74
2023/09/19 03:23:06;;;;;;;15.02;3.50;;;;;;;13.81;94.83;100754.59;6209599;23;20409;-74
2023/09/19 03:25:31;;;;;;;11.75;2.80;;;;;;;13.80;94.57;100752.88;6211764;23;20027;-74
2023/09/19 03:27:57;;;;;;;13.20;3.00;;;;;;;13.80;95.14;100755.56;6211460;23;20005;-74
2023/09/19 03:30:23;;;;;;;16.05;3.55;;;;;;;13.80;94.17;100752.03;6184703;23;20016;-74
2023/09/19 03:32:49;;;;;;;14.82;2.92;;;;;;;13.84;94.60;100753.47;6209758;23;20001;-74
2023/09/19 03:35:16;;;;;;;12.82;3.15;;;;;;;13.83;95.34;100753.63;6211826;23;20012;-73
2023/09/19 03:37:42;;;;;;;18.77;3.22;;;;;;;13.80;94.31;100741.22;6211688;23;20008;-74
2023/09/19 03:40:10;;;;;;;13.52;3.03;;;;;;;13.79;94.75;100750.31;6211415;23;20011;-74
2023/09/19 03:42:38;;;;;;;14.32;3.20;;;;;;;13.82;94.70;100750.03;6211060;23;20295;-74
2023/09/19 03:45:03;;;;;;;9.63;2.53;;;;;;;13.80;95.37;100746.63;6210213;23;20407;-74
2023/09/19 03:47:29;;;;;;;13.88;2.88;;;;;;;13.84;95.49;100731.88;6211409;23;20008;-73
2023/09/19 03:49:54;;;;;;;13.65;3.20;;;;;;;13.86;95.04;100735.28;6211578;23;20012;-74
2023/09/19 03:52:19;;;;;;;10.32;2.85;;;;;;;13.88;95.69;100741.41;6211241;23;20501;-73
2023/09/19 03:54:44;;;;;;;12.50;2.65;;;;;;;13.86;95.98;100732.56;6211267;23;20046;-73
2023/09/19 03:57:10;;;;;;;12.10;2.85;;;;;;;13.89;96.84;100735.00;6211438;23;20011;-73
2023/09/19 03:59:35;;;;;;;17.95;3.63;;;;;;;13.87;95.92;100733.44;6185526;23;20442;-74
2023/09/19 04:02:02;;;;;;;15.02;3.45;;;;;;;13.91;96.25;100734.84;6185070;23;20000;-74
2023/09/19 04:04:29;;;;;;;19.58;3.30;;;;;;;13.91;96.69;100742.97;6211104;23;20004;-74
2023/09/19 04:06:54;;;;;;;19.60;3.35;;;;;;;13.93;96.35;100733.75;6211740;23;20070;-74
2023/09/19 04:09:19;;;;;;;10.93;3.15;;;;;;;13.92;96.60;100732.03;6184280;23;20004;-74
2023/09/19 04:11:45;;;;;;;14.13;3.20;;;;;;;13.91;96.71;100730.34;6211503;23;20008;-73
2023/09/19 04:14:10;;;;;;;15.50;3.70;;;;;;;13.91;97.60;100735.72;6209905;23;20031;-74
2023/09/19 04:16:35;;;;;;;16.35;2.90;;;;;;;13.93;97.45;100731.03;6210638;23;20008;-74
2023/09/19 04:19:01;;;;;;;16.00;3.58;;;;;;;13.91;97.35;100740.25;6212143;23;20057;-75
2023/09/19 04:21:28;;;;;;;22.75;4.05;;;;;;;13.90;97.87;100743.97;6212307;23;20382;-75
2023/09/19 04:23:53;;;;;;;16.80;3.45;;;;;;;13.93;97.58;100751.81;6184970;23;20403;-75
2023/09/19 04:26:19;;;;;;;11.77;2.50;;;;;;;13.92;97.91;100767.13;6211415;23;20004;-75
2023/09/19 04:28:44;;;;;;;16.83;3.38;;;;;;;13.91;97.88;100770.84;6211717;23;20074;-75
2023/09/19 04:31:10;;;;;;;18.35;3.53;;;;;;;13.91;97.70;100760.06;6211028;23;20084;-75
2023/09/19 04:33:35;;;;;;;11.82;2.85;;;;;;;13.96;99.06;100765.88;6211553;23;20079;-75
2023/09/19 04:36:01;;;;;;;20.83;3.75;;;;;;;13.95;97.66;100779.53;6211525;23;20028;-74
2023/09/19 04:38:28;;;;;;;16.75;3.20;;;;;;;13.96;98.65;100790.19;6185123;23;20083;-75
2023/09/19 04:40:57;;;;;;;16.52;3.50;;;;;;;14.00;98.74;100788.09;6183709;23;20009;-75
2023/09/19 04:43:23;;;;;;;12.88;2.58;;;;;;;14.03;98.21;100800.50;6211854;23;20023;-75
2023/09/19 04:45:49;;;;;;;15.57;3.55;;;;;;;14.06;98.75;100803.75;6211650;23;20005;-75
2023/09/19 04:48:16;;;;;;;10.10;3.03;;;;;;;14.09;98.79;100802.63;6211972;23;20116;-75
2023/09/19 04:50:41;;;;;;;15.63;3.17;;;;;;;14.07;98.33;100812.72;6183605;23;20004;-75
2023/09/19 04:53:07;;;;;;;18.75;3.65;;;;;;;14.09;98.09;100808.88;6185670;23;20001;-75
2023/09/19 04:55:32;;;;;;;13.20;2.78;;;;;;;14.11;98.13;100814.16;6184480;23;20057;-74
2023/09/19 04:57:58;;;;;;;17.77;3.50;;;;;;;14.10;98.75;100817.84;6213031;23;20010;-75
2023/09/19 05:00:24;;;;;;;15.95;3.38;;;;;;;14.11;98.20;100819.56;6186667;23;20063;-75
2023/09/19 05:02:56;;;;;;;12.00;2.92;;;;;;;14.15;98.91;100821.00;6212974;23;20462;-75
2023/09/19 05:05:22;;;;;;;20.50;4.35;;;;;;;14.16;98.53;100820.03;6212750;23;20027;-75
2023/09/19 05:07:48;;;;;;;13.80;3.03;;;;;;;14.15;98.25;100826.41;6212878;23;20066;-75
2023/09/19 05:10:13;;;;;;;14.07;3.10;;;;;;;14.16;98.70;100825.44;6185638;23;20087;-74
2023/09/19 05:12:39;;;;;;;15.98;3.35;;;;;;;14.13;97.96;100820.31;6213698;23;20012;-75
2023/09/19 05:15:08;;;;;;;16.90;3.28;;;;;;;14.11;98.52;100822.25;6212296;23;20015;-76
2023/09/19 05:17:34;;;;;;;12.30;3.00;;;;;;;14.10;98.40;100821.41;6213266;23;20009;-76
2023/09/19 05:20:05;;;;;;;14.98;4.00;;;;;;;14.07;98.63;100824.41;6212056;23;20001;-75
2023/09/19 05:22:32;;;;;;;16.33;3.22;;;;;;;14.07;100.00;100827.09;6211736;23;20099;-75
2023/09/19 05:24:57;;;;;;;14.57;3.08;;;;;;;14.07;99.16;100820.81;6211263;23;20467;-74
2023/09/19 05:27:23;;;;;;;13.27;2.85;;;;;;;14.08;99.93;100826.09;6211871;23;20008;-75
2023/09/19 05:29:50;;;;;;;13.98;2.85;;;;;;;14.07;100.00;100821.69;6213635;23;20017;-68
2023/09/19 05:32:16;;;;;;;17.52;3.35;;;;;;;14.08;100.00;100834.19;6212653;23;20017;-69
2023/09/19 05:34:41;;;;;;;18.05;3.42;;;;;;;14.09;100.00;100827.81;6213406;23;20000;-68
2023/09/19 05:37:07;;;;;;;14.50;2.85;;;;;;;14.12;100.00;100841.03;6211580;23;20047;-69
2023/09/19 05:39:32;;;;;;;13.15;3.03;;;;;;;14.10;100.00;100831.34;6212907;23;20004;-69
2023/09/19 05:41:58;;;;;;;9.95;2.80;;;;;;;14.09;100.00;100832.38;6212829;23;20219;-68
2023/09/19 05:44:23;;;;;;;22.65;3.97;;;;;;;14.09;100.00;100843.19;6212596;23;20008;-68
2023/09/19 05:46:49;;;;;;;19.02;3.17;;;;;;;14.07;100.00;100845.13;6212706;23;20096;-68
2023/09/19 05:49:15;;;;;;;13.85;3.28;;;;;;;14.06;100.00;100827.25;6212757;23;20104;-69
2023/09/19 05:51:41;;;;;;;13.88;3.13;;;;;;;14.06;100.00;100830.78;6212956;23;20031;-67
2023/09/19 05:54:10;;;;;;;14.43;3.42;;;;;;;14.05;100.00;100825.53;6186031;23;20011;-68
2023/09/19 05:56:36;;;;;;;17.85;3.97;;;;;;;14.05;100.00;100818.25;6184247;23;20012;-68
2023/09/19 05:59:01;;;;;;;16.45;3.67;;;;;;;14.08;100.00;100823.38;6212308;23;20004;-68
2023/09/19 06:01:27;;;;;;;13.90;3.20;;;;;;;14.07;100.00;100827.09;6212387;23;20058;-69
2023/09/19 06:03:52;;;;;;;15.23;3.17;;;;;;;14.06;100.00;100829.94;6212567;23;20004;-67
2023/09/19 06:06:18;;;;;;;20.80;4.20;;;;;;;14.06;100.00;100830.78;6212835;23;20456;-67
2023/09/19 06:08:44;;;;;;;20.85;4.30;;;;;;;14.08;100.00;100830.66;6185838;23;20036;-68
2023/09/19 06:11:10;;;;;;;16.17;3.35;;;;;;;14.11;100.00;100822.25;6213137;23;20004;-68
2023/09/19 06:13:36;;;;;;;14.35;2.97;;;;;;;14.11;100.00;100815.00;6210096;23;20008;-66
2023/09/19 06:16:05;;;;;;;15.35;3.78;;;;;;;14.11;100.00;100827.66;6212336;23;20107;-69
2023/09/19 06:18:33;;;;;;;17.80;3.75;;;;;;;14.12;100.00;100834.78;6185617;23;20083;-67
2023/09/19 06:20:59;;;;;;;15.43;3.55;;;;;;;14.13;100.00;100841.91;6212408;23;20001;-68
2023/09/19 06:23:26;;;;;;;15.25;3.53;;;;;;;14.12;100.00;100834.78;6212536;23;20009;-68
2023/09/19 06:25:53;;;;;;;18.52;3.70;;;;;;;14.10;100.00;100852.97;6211636;23;20000;-68
2023/09/19 06:28:23;;;;;;;11.68;2.72;;;;;;;14.11;100.00;100833.91;6211963;23;20004;-69
2023/09/19 06:30:49;;;;;;;17.20;3.03;;;;;;;14.15;100.00;100861.53;6185372;23;20004;-68
2023/09/19 06:33:16;;;;;;;13.75;3.88;;;;;;;14.15;100.00;100861.53;6185545;23;20075;-70
2023/09/19 06:35:44;;;;;;;15.45;3.40;;;;;;;14.12;100.00;100864.53;6212210;23;20087;-68
2023/09/19 06:38:12;;;;;;;19.27;4.18;;;;;;;14.14;100.00;100859.81;6185155;23;20374;-69
2023/09/19 06:40:39;;;;;;;15.93;3.20;;;;;;;14.14;100.00;100862.53;6212210;23;20005;-68
2023/09/19 06:43:05;;;;;;;22.48;3.50;;;;;;;14.14;100.00;100865.22;6185110;23;20043;-69
2023/09/19 06:45:31;;;;;;;18.10;3.35;;;;;;;14.17;100.00;100864.97;6210619;23;20008;-69
2023/09/19 06:47:57;;;;;;;16.15;3.53;;;;;;;14.20;100.00;100869.25;6184476;23;20092;-68
2023/09/19 06:50:23;;;;;;;16.02;3.30;;;;;;;14.19;100.00;100865.69;6212264;23;20068;-69
2023/09/19 06:52:51;;;;;;;15.82;3.40;;;;;;;14.22;100.00;100864.56;6185686;23;20106;-68
2023/09/19 06:55:19;;;;;;;16.08;3.45;;;;;;;14.22;100.00;100868.13;6212730;23;20441;-67
2023/09/19 06:57:44;;;;;;;17.70;3.47;;;;;;;14.21;100.00;100870.97;6211089;23;20076;-69
2023/09/19 07:00:22;;;;;;;18.55;4.32;;;;;;;14.22;100.00;100860.00;6212344;23;20035;-68
2023/09/19 07:03:11;;;;;;;16.98;3.65;;;;;;;14.26;100.00;100866.88;6212687;23;20054;-69
2023/09/19 07:05:38;;;;;;;18.80;3.15;;;;;;;14.27;100.00;100865.84;6213120;23;20062;-69
2023/09/19 07:08:09;;;;;;;15.95;3.38;;;;;;;14.28;100.00;100875.69;6211848;23;20004;-68
2023/09/19 07:10:34;;;;;;;22.52;3.78;;;;;;;14.28;100.00;100864.88;6212847;23;20157;-69
2023/09/19 07:13:02;;;;;;;18.75;3.67;;;;;;;14.34;100.00;100872.44;6211490;23;20009;-69
2023/09/19 07:15:29;;;;;;;16.67;3.35;;;;;;;14.34;100.00;100867.03;6185495;23;20442;-68
2023/09/19 07:17:56;;;;;;;15.95;3.85;;;;;;;14.39;100.00;100873.88;6184266;23;20074;-69
2023/09/19 07:20:23;;;;;;;19.02;4.13;;;;;;;14.40;100.00;100878.28;6209273;23;20008;-68
2023/09/19 07:22:50;;;;;;;17.38;3.53;;;;;;;14.41;100.00;100882.72;6210129;23;20062;-69
2023/09/19 07:25:16;;;;;;;16.23;3.85;;;;;;;14.45;100.00;100870.63;6211311;23;20011;-69
2023/09/19 07:27:42;;;;;;;21.95;3.75;;;;;;;14.47;100.00;100874.91;6210471;23;20005;-70
2023/09/19 07:30:08;;;;;;;20.00;4.03;;;;;;;14.48;100.00;100878.44;6210564;23;20117;-69
2023/09/19 07:32:36;;;;;;;22.65;3.95;;;;;;;14.50;100.00;100871.06;6210847;23;20316;-68
2023/09/19 07:35:02;;;;;;;20.17;4.07;;;;;;;14.51;100.00;100862.81;6211551;23;20011;-69
2023/09/19 07:37:29;;;;;;;20.20;4.32;;;;;;;14.56;100.00;100861.56;6211451;23;20009;-68
2023/09/19 07:39:54;;;;;;;17.77;3.83;;;;;;;14.58;100.00;100865.81;6183533;23;20010;-68
2023/09/19 07:42:19;;;;;;;17.23;3.45;;;;;;;14.63;100.00;100860.88;6211009;23;20004;-69
2023/09/19 07:44:47;;;;;;;14.10;3.40;;;;;;;14.68;100.00;100872.16;6210900;23;20004;-69
2023/09/19 07:47:14;;;;;;;20.30;3.50;;;;;;;14.75;100.00;100868.91;6211371;23;20001;-69
2023/09/19 07:49:39;;;;;;;14.75;3.40;;;;;;;14.79;100.00;100867.63;6183382;23;20470;-74
2023/09/19 07:52:05;;;;;;;16.95;4.07;;;;;;;14.82;100.00;100870.91;6184643;23;20036;-76
2023/09/19 07:54:35;;;;;;;12.57;3.38;;;;;;;14.86;100.00;100871.44;6184223;23;20335;-74
2023/09/19 07:57:01;;;;;;;16.20;3.30;;;;;;;14.91;100.00;100879.19;6210951;23;20012;-74
2023/09/19 07:59:26;;;;;;;14.93;3.70;;;;;;;14.97;100.00;100871.34;6210321;23;20399;-75
2023/09/19 08:01:52;;;;;;;16.90;3.90;;;;;;;14.99;100.00;100872.06;6183327;23;20441;-74
2023/09/19 08:04:19;;;;;;;20.52;4.43;;;;;;;15.01;100.00;100875.47;6210849;23;20004;-74
2023/09/19 08:06:44;;;;;;;17.23;3.55;;;;;;;15.06;100.00;100880.47;6183437;23;20035;-74
2023/09/19 08:09:11;;;;;;;18.40;3.90;;;;;;;15.12;100.00;100873.63;6210261;23;20346;-75
2023/09/19 08:11:36;;;;;;;20.77;3.80;;;;;;;15.16;100.00;100880.47;6211010;23;20032;-76
2023/09/19 08:14:02;;;;;;;21.00;5.03;;;;;;;15.20;100.00;100874.63;6210680;23;20075;-75
2023/09/19 08:16:27;;;;;;;17.80;3.47;;;;;;;15.24;100.00;100875.19;6184420;23;20732;-75
2023/09/19 08:18:55;;;;;;;17.27;3.45;;;;;;;15.28;100.00;100875.78;6209624;23;20016;-75
2023/09/19 08:21:21;;;;;;;22.65;3.47;;;;;;;15.30;100.00;100874.66;6210530;23;20108;-75
2023/09/19 08:23:46;;;;;;;16.27;3.13;;;;;;;15.34;100.00;100881.50;6210283;23;20015;-72
2023/09/19 08:26:12;;;;;;;22.75;3.67;;;;;;;15.40;100.00;100880.03;6210749;23;20311;-74
2023/09/19 08:28:40;;;;;;;12.68;3.22;;;;;;;15.43;100.00;100884.31;6210679;23;20020;-73
2023/09/19 08:31:09;;;;;;;15.82;3.33;;;;;;;15.47;100.00;100874.91;6212813;23;20013;-74
2023/09/19 08:33:36;;;;;;;15.18;3.80;;;;;;;15.51;100.00;100879.06;6185391;23;20425;-73
2023/09/19 08:36:07;;;;;;;15.15;3.13;;;;;;;15.51;100.00;100871.75;6212896;23;20330;-75
2023/09/19 08:38:34;;;;;;;20.20;4.32;;;;;;;15.57;100.00;100883.88;6212707;23;20005;-73
2023/09/19 08:41:00;;;;;;;20.00;3.42;;;;;;;15.60;100.00;100878.16;6184779;23;20047;-75
2023/09/19 08:43:26;;;;;;;15.52;4.05;;;;;;;15.63;100.00;100872.47;6186008;23;20485;-74
2023/09/19 08:46:14;;;;;;;18.67;3.50;;;;;;;15.68;100.00;100875.59;6212474;23;20288;-74
2023/09/19 08:48:49;;;;;;;21.25;4.05;;;;;;;15.68;100.00;100866.59;6212170;23;20038;-74
2023/09/19 08:51:26;;;;;;;17.65;3.45;;;;;;;15.71;100.00;100877.16;6212352;23;20020;-75
2023/09/19 08:54:07;;;;;;;16.30;3.72;;;;;;;15.73;99.50;100881.44;6212124;23;20009;-75
2023/09/19 08:56:33;;;;;;;19.42;4.63;;;;;;;15.75;98.58;100875.84;6211934;23;20011;-75
2023/09/19 08:59:08;;;;;;;18.02;3.70;;;;;;;15.78;98.85;100874.72;6185246;23;20008;-75
2023/09/19 09:01:35;;;;;;;16.48;3.33;;;;;;;15.85;100.00;100886.72;6211582;23;20079;-67
2023/09/19 09:04:02;;;;;;;20.92;4.00;;;;;;;15.90;99.53;100879.88;6211886;23;20035;-68
2023/09/19 09:06:28;;;;;;;14.70;3.90;;;;;;;15.94;100.00;100872.28;6211868;23;20309;-68
2023/09/19 09:08:54;;;;;;;16.98;3.85;;;;;;;16.00;100.00;100877.13;6209621;23;20000;-70
2023/09/19 09:11:20;;;;;;;14.10;4.10;;;;;;;16.05;100.00;100880.25;6211762;23;20345;-68
2023/09/19 09:13:47;;;;;;;18.85;3.85;;;;;;;16.08;100.00;100874.53;6212070;23;20038;-69
2023/09/19 09:16:17;;;;;;;14.00;3.60;;;;;;;16.11;100.00;100878.81;6184109;23;20039;-68
2023/09/19 09:18:44;;;;;;;14.75;2.97;;;;;;;16.18;100.00;100868.19;6185603;23;20005;-69
2023/09/19 09:21:09;;;;;;;20.13;4.07;;;;;;;16.23;99.98;100884.91;6211675;23;20024;-68
2023/09/19 09:23:34;;;;;;;17.75;3.53;;;;;;;16.24;96.13;100886.63;6211862;23;20011;-68
2023/09/19 09:26:03;;;;;;;17.00;3.55;;;;;;;16.23;96.54;100898.47;6185601;23;20451;-69
2023/09/19 09:28:31;;;;;;;16.02;3.67;;;;;;;16.24;97.76;100879.31;6211683;23;20335;-68
2023/09/19 09:30:58;;;;;;;19.75;4.22;;;;;;;16.31;99.91;100879.59;6211771;23;20445;-69
2023/09/19 09:33:24;;;;;;;18.65;3.95;;;;;;;16.36;97.33;100871.00;6185077;23;20016;-68
2023/09/19 09:35:52;;;;;;;20.98;4.75;;;;;;;16.41;96.53;100858.69;6212225;23;20308;-69
2023/09/19 09:38:32;;;;;;;17.30;3.80;;;;;;;16.45;95.90;100869.25;6212077;23;20040;-69
2023/09/19 09:41:07;;;;;;;18.73;4.30;;;;;;;16.46;96.49;100868.22;6211079;23;20334;-68
2023/09/19 09:43:38;;;;;;;15.40;3.47;;;;;;;16.47;94.37;100857.25;6211804;23;20072;-68
2023/09/19 09:48:54;;;;;;;16.48;3.40;;;;;;;16.51;95.19;100857.78;6221212;23;20097;-70
2023/09/19 09:51:33;;;;;;;12.57;3.40;;;;;;;16.62;96.67;100856.72;6210987;23;20000;-69
2023/09/19 09:54:15;;;;;;;15.23;3.33;;;;;;;16.70;95.73;100868.53;6209644;23;20422;-68
2023/09/19 09:57:01;;;;;;;16.17;3.40;;;;;;;16.74;95.16;100856.34;6210787;23;20012;-68
2023/09/19 10:02:46;;;;;;;16.98;3.92;;;;;;;16.76;91.85;100862.50;6191084;23;20009;-69
2023/09/19 10:05:22;;;;;;;15.57;3.88;;;;;;;16.75;89.96;100862.63;6182899;23;20027;-68
2023/09/19 10:07:54;;;;;;;19.35;4.10;;;;;;;16.76;92.14;100867.94;6183989;23;20150;-68
2023/09/19 10:13:12;;;;;;;13.63;3.28;;;;;;;16.80;89.80;100868.47;6211120;23;20066;-67
2023/09/19 10:15:40;;;;;;;12.10;3.65;;;;;;;16.86;91.60;100867.00;6211879;23;20556;-67
2023/09/19 10:18:08;;;;;;;14.60;3.80;;;;;;;16.89;91.47;100869.44;6184659;23;20449;-68
2023/09/19 10:20:38;;;;;;;15.73;4.13;;;;;;;16.90;91.42;100855.72;6211755;23;20004;-67
2023/09/19 10:23:09;;;;;;;12.75;3.20;;;;;;;16.88;89.15;100843.28;6210911;23;20023;-68
2023/09/19 10:25:37;;;;;;;12.80;3.10;;;;;;;16.89;89.26;100845.00;6184585;23;20004;-67
2023/09/19 10:28:04;;;;;;;14.02;4.03;;;;;;;16.92;91.75;100844.69;6211937;23;20032;-68
2023/09/19 10:30:34;;;;;;;15.40;3.75;;;;;;;16.99;92.01;100851.22;6150933;23;20083;-67
2023/09/19 10:33:05;;;;;;;13.48;3.55;;;;;;;17.01;88.26;100840.19;6151538;23;20002;-69
2023/09/19 10:35:32;;;;;;;16.92;3.40;;;;;;;17.08;90.51;100855.72;6149346;23;20006;-68
2023/09/19 10:38:01;;;;;;;17.77;3.47;;;;;;;17.15;87.10;100857.84;6150797;23;20080;-68
2023/09/19 10:40:32;;;;;;;16.55;3.72;;;;;;;17.21;86.23;100859.91;6150663;23;20063;-70
2023/09/19 10:43:05;;;;;;;15.52;3.20;;;;;;;17.25;87.61;100848.59;6150090;23;20076;-68
2023/09/19 10:45:32;;;;;;;17.48;3.75;;;;;;;17.25;86.69;100855.88;6149611;23;20438;-68
2023/09/19 10:47:58;;;;;;;16.35;3.40;;;;;;;17.26;85.60;100849.44;6151126;23;20316;-68
2023/09/19 10:50:31;;;;;;;18.27;3.95;;;;;;;17.32;88.07;100861.53;6150299;23;20419;-69
2023/09/19 10:53:04;;;;;;;13.80;3.28;;;;;;;17.38;83.72;100840.03;6150508;23;20006;-70
2023/09/19 10:55:31;;;;;;;15.05;3.25;;;;;;;17.41;83.20;100850.59;6149469;23;20328;-69
2023/09/19 10:58:13;;;;;;;21.20;3.47;;;;;;;17.46;85.37;100853.66;6150991;23;20009;-68
2023/09/19 11:00:56;;;;;;;13.52;2.88;;;;;;;17.58;86.51;100856.13;6148886;23;20012;-69
2023/09/19 11:03:30;;;;;;;15.55;3.58;;;;;;;17.64;84.57;100841.91;6149914;23;20113;-68
2023/09/19 11:06:10;;;;;;;11.40;3.13;;;;;;;17.67;82.90;100828.00;6150619;23;20005;-69
2023/09/19 11:08:51;;;;;;;13.45;3.55;;;;;;;17.68;83.38;100824.28;6151722;23;20009;-68
2023/09/19 11:11:38;;;;;;;18.05;3.10;;;;;;;17.69;83.62;100815.13;6150086;23;20133;-69
2023/09/19 11:14:29;;;;;;;14.57;3.35;;;;;;;17.73;83.63;100819.22;6151379;23;20361;-68
2023/09/19 11:17:11;;;;;;;10.98;3.17;;;;;;;17.76;81.71;100815.31;6150197;23;20020;-69
2023/09/19 11:22:57;;;;;;;;;;;;;;;17.84;83.52;100812.66;6151825;23;20093;-73
2023/09/19 11:25:34;;;;;;;15.63;3.28;;;;;;;17.88;81.50;100814.03;6150841;23;20187;-74
2023/09/19 11:28:05;;;;;;;15.32;3.17;;;;;;;17.91;80.62;100802.03;6152043;23;20001;-74
2023/09/19 11:30:40;;;;;;;17.77;3.90;;;;;;;17.95;81.02;100803.41;6209353;23;20366;-74
2023/09/19 11:33:28;;;;;;;15.32;3.53;;;;;;;18.03;84.87;100789.84;6210798;23;20062;-74